Time;durP1;ratioP1;P1;durP2;ratioP2;P2;SDS_P1;SDS_P2;PMS_P1;PMS_P2;Temp;Humidity;BMP_temperature;BMP_pressure;BME280_temperature;BME280_humidity;BME280_pressure;Samples;Min_cycle;Max_cycle;Signal;HPM_P1;HPM_P2
2022/06/26 00:01:37;;;;;;;10.63;2.33;;;;;;;16.70;98.67;99004.13;5067562;28;20051;-55
2022/06/26 00:04:03;;;;;;;10.05;2.40;;;;;;;16.57;98.27;99009.16;5068492;28;20028;-53
2022/06/26 00:06:28;;;;;;;12.07;2.53;;;;;;;16.66;99.47;99008.50;5068773;28;20028;-56
2022/06/26 00:08:54;;;;;;;9.43;2.60;;;;;;;16.72;98.85;99001.94;5069708;28;20082;-55
2022/06/26 00:11:19;;;;;;;13.65;3.50;;;;;;;16.61;98.01;98996.66;5068706;28;20391;-55
2022/06/26 00:13:45;;;;;;;23.40;2.63;;;;;;;16.61;98.02;99007.47;5050811;28;20021;-56
2022/06/26 00:16:10;;;;;;;7.22;2.20;;;;;;;16.58;97.62;99001.84;5069035;28;20061;-55
2022/06/26 00:18:36;;;;;;;7.30;2.20;;;;;;;16.58;96.67;99005.34;5050741;28;20067;-56
2022/06/26 00:21:01;;;;;;;6.82;2.17;;;;;;;16.58;97.37;99002.63;5068166;28;20039;-55
2022/06/26 00:23:26;;;;;;;8.70;2.13;;;;;;;16.45;96.78;99005.22;5068676;28;20032;-55
2022/06/26 00:25:52;;;;;;;4.68;1.90;;;;;;;16.56;96.69;99009.44;5069100;28;20024;-55
2022/06/26 00:28:17;;;;;;;10.05;2.50;;;;;;;16.64;95.96;99010.69;5069069;28;20020;-56
2022/06/26 00:30:43;;;;;;;3.95;2.13;;;;;;;16.75;95.19;99018.44;5047349;28;20040;-55
2022/06/26 00:33:08;;;;;;;9.07;2.10;;;;;;;16.72;95.55;99020.88;5068224;28;20093;-56
2022/06/26 00:35:34;;;;;;;5.78;2.20;;;;;;;16.70;95.26;99021.19;5068306;28;20403;-56
2022/06/26 00:37:59;;;;;;;7.90;2.38;;;;;;;16.66;96.76;99022.03;5068189;28;20547;-56
2022/06/26 00:40:24;;;;;;;3.55;2.40;;;;;;;16.64;97.04;99035.06;5068586;28;20035;-56
2022/06/26 00:42:50;;;;;;;5.25;2.20;;;;;;;16.60;97.88;99030.22;5069173;28;20107;-56
2022/06/26 00:45:15;;;;;;;5.85;2.08;;;;;;;16.50;98.27;99035.75;5052631;28;20386;-54
2022/06/26 00:47:41;;;;;;;3.35;2.05;;;;;;;16.48;97.91;99024.38;5044807;28;20028;-56
2022/06/26 00:50:08;;;;;;;5.60;2.20;;;;;;;16.48;98.23;99027.09;5067276;28;20094;-56
2022/06/26 00:52:34;;;;;;;5.70;2.33;;;;;;;16.65;98.04;99033.94;5068298;28;20036;-56
2022/06/26 00:54:59;;;;;;;5.55;2.30;;;;;;;16.63;97.97;99042.38;5050172;28;20070;-55
2022/06/26 00:57:24;;;;;;;7.40;2.20;;;;;;;16.58;97.72;99035.09;5048627;28;20025;-56
2022/06/26 00:59:50;;;;;;;6.43;2.13;;;;;;;16.64;97.62;99043.16;5066426;28;20032;-56
2022/06/26 01:02:15;;;;;;;3.03;2.20;;;;;;;16.60;97.94;99038.34;5050135;28;20032;-55
2022/06/26 01:04:41;;;;;;;8.43;2.30;;;;;;;16.61;97.93;99039.94;5067641;28;20028;-55
2022/06/26 01:07:06;;;;;;;4.03;2.40;;;;;;;16.52;97.48;99048.97;5068218;28;20017;-53
2022/06/26 01:09:33;;;;;;;2.20;1.88;;;;;;;16.61;97.58;99050.75;5067045;28;20094;-54
2022/06/26 01:11:58;;;;;;;3.15;2.10;;;;;;;16.70;97.41;99050.13;5068818;28;20039;-54
2022/06/26 01:14:24;;;;;;;5.88;2.20;;;;;;;16.53;98.03;99043.28;5045250;28;20028;-56
2022/06/26 01:16:50;;;;;;;9.38;2.28;;;;;;;16.57;98.09;99041.63;5043537;28;20402;-55
2022/06/26 01:19:16;;;;;;;5.10;2.10;;;;;;;16.57;97.41;99040.78;5067241;28;20505;-54
2022/06/26 01:21:41;;;;;;;3.67;2.08;;;;;;;16.53;97.55;99037.88;5067401;28;20116;-56
2022/06/26 01:24:07;;;;;;;7.47;2.22;;;;;;;16.51;97.85;99039.25;5067881;28;20701;-55
2022/06/26 01:26:33;;;;;;;8.20;2.17;;;;;;;16.53;97.52;99047.88;5067993;28;20470;-55
2022/06/26 01:28:58;;;;;;;2.95;1.90;;;;;;;16.54;97.01;99050.28;5042597;28;20100;-55
2022/06/26 01:31:23;;;;;;;5.80;2.15;;;;;;;16.51;97.25;99056.28;5049962;28;20055;-55
2022/06/26 01:33:49;;;;;;;5.38;1.80;;;;;;;16.52;96.77;99063.28;5070874;28;20051;-55
2022/06/26 01:36:15;;;;;;;3.58;2.00;;;;;;;16.55;96.23;99060.03;5049769;28;20020;-55
2022/06/26 01:38:40;;;;;;;4.07;1.75;;;;;;;16.50;96.63;99060.09;5066298;28;20025;-55
2022/06/26 01:41:06;;;;;;;4.57;2.08;;;;;;;16.43;97.27;99054.19;5063157;28;20029;-55
2022/06/26 01:43:33;;;;;;;3.70;1.85;;;;;;;16.48;96.60;99051.44;5042317;28;20029;-55
2022/06/26 01:45:59;;;;;;;8.20;2.15;;;;;;;16.47;97.50;99060.63;5025285;28;20368;-53
2022/06/26 01:48:25;;;;;;;6.50;2.20;;;;;;;16.37;97.71;99060.72;5063409;28;20036;-55
2022/06/26 01:50:52;;;;;;;6.68;2.40;;;;;;;16.32;97.89;99058.88;5067290;28;20037;-56
2022/06/26 01:53:17;;;;;;;3.95;2.05;;;;;;;16.36;98.07;99054.53;5038569;28;20021;-55
2022/06/26 01:55:43;;;;;;;9.55;2.38;;;;;;;16.42;97.83;99052.56;5067729;28;20036;-55
2022/06/26 01:58:08;;;;;;;7.47;2.30;;;;;;;16.34;98.00;99050.50;5066622;28;20497;-55
2022/06/26 02:00:35;;;;;;;5.10;2.60;;;;;;;16.40;97.24;99046.66;5067149;28;20035;-55
2022/06/26 02:03:01;;;;;;;2.53;1.88;;;;;;;16.39;97.13;99047.72;5066215;28;20028;-54
2022/06/26 02:05:27;;;;;;;5.05;2.17;;;;;;;16.44;97.12;99044.97;5067522;28;20025;-56
2022/06/26 02:07:52;;;;;;;5.63;2.28;;;;;;;16.47;97.02;99055.22;5067362;28;20033;-55
2022/06/26 02:15:47;;;;;;;4.55;2.40;;;;;;;16.38;98.21;99049.63;5039037;28;20081;-55
2022/06/26 02:18:13;;;;;;;6.63;2.25;;;;;;;16.38;97.95;99040.72;5066844;28;20013;-55
2022/06/26 02:20:38;;;;;;;7.18;2.58;;;;;;;16.32;98.79;99033.72;5068282;28;20409;-56
2022/06/26 02:23:04;;;;;;;6.43;2.47;;;;;;;16.46;97.49;99037.38;5042658;28;20025;-55
2022/06/26 02:25:29;;;;;;;3.53;2.20;;;;;;;16.47;97.49;99036.28;5067301;28;20059;-55
2022/06/26 02:27:55;;;;;;;6.28;2.20;;;;;;;16.44;97.25;99034.16;5062365;28;20360;-53
2022/06/26 02:30:20;;;;;;;6.43;2.25;;;;;;;16.36;97.76;99037.50;5066091;28;20029;-55
2022/06/26 02:32:46;;;;;;;7.28;2.25;;;;;;;16.44;97.80;99036.06;5064207;28;20024;-54
2022/06/26 02:35:11;;;;;;;6.45;2.25;;;;;;;16.44;97.21;99053.09;5067328;28;20032;-54
2022/06/26 02:37:36;;;;;;;6.57;2.25;;;;;;;16.45;97.60;99056.59;5067509;28;20023;-54
2022/06/26 02:40:03;;;;;;;6.88;2.50;;;;;;;16.44;98.23;99055.78;5056015;28;20024;-53
2022/06/26 02:42:29;;;;;;;5.22;2.30;;;;;;;16.40;97.70;99054.78;5069355;28;20031;-56
2022/06/26 02:44:54;;;;;;;6.32;2.50;;;;;;;16.30;99.41;99049.44;5052254;28;20025;-55
2022/06/26 02:47:19;;;;;;;8.88;2.45;;;;;;;16.34;99.16;99054.00;5070476;28;20035;-55
2022/06/26 02:49:45;;;;;;;14.48;2.45;;;;;;;16.30;99.00;99054.84;5070305;28;20027;-54
2022/06/26 02:52:10;;;;;;;7.25;2.17;;;;;;;16.30;98.52;99054.84;5070566;28;20032;-55
2022/06/26 02:54:36;;;;;;;12.13;2.10;;;;;;;16.15;99.63;99069.31;5071110;28;20292;-55
2022/06/26 02:57:01;;;;;;;5.20;2.10;;;;;;;16.17;99.83;99067.94;5070092;28;20050;-54
2022/06/26 02:59:27;;;;;;;7.32;2.35;;;;;;;16.23;99.16;99059.78;5069339;28;20033;-55
2022/06/26 03:01:52;;;;;;;6.88;2.33;;;;;;;16.16;100.00;99066.31;5070614;28;20360;-56
2022/06/26 03:04:17;;;;;;;6.18;2.40;;;;;;;16.23;99.55;99070.63;5070334;28;20470;-55
2022/06/26 03:06:43;;;;;;;9.55;3.28;;;;;;;16.20;99.92;99071.16;5069925;28;20363;-55
2022/06/26 03:09:08;;;;;;;10.07;2.40;;;;;;;16.26;99.45;99075.44;5070783;28;20047;-54
2022/06/26 03:11:34;;;;;;;4.95;2.10;;;;;;;16.40;98.96;99081.81;5045127;28;20045;-55
2022/06/26 03:14:00;;;;;;;4.07;2.10;;;;;;;16.45;97.18;99089.88;5053130;28;20047;-54
2022/06/26 03:16:25;;;;;;;6.68;2.17;;;;;;;16.41;96.94;99083.41;5051608;28;20056;-55
2022/06/26 03:18:51;;;;;;;6.45;2.20;;;;;;;16.30;98.97;99081.88;5069807;28;20025;-56
2022/06/26 03:21:16;;;;;;;5.32;2.20;;;;;;;15.97;99.60;99081.59;5069924;28;20034;-55
2022/06/26 03:26:26;;;;;;;7.53;2.50;;;;;;;15.87;100.00;99089.78;5069740;28;20086;-54
2022/06/26 03:28:51;;;;;;;9.15;2.70;;;;;;;15.75;100.00;99098.25;5069870;28;20463;-55
2022/06/26 03:31:17;;;;;;;12.55;2.70;;;;;;;15.74;100.00;99097.44;5052395;28;21858;-55
2022/06/26 03:33:42;;;;;;;13.93;3.25;;;;;;;15.75;100.00;99098.25;5069775;28;20024;-54
2022/06/26 03:36:08;;;;;;;8.75;2.33;;;;;;;15.90;100.00;99110.84;5070047;28;20032;-55
2022/06/26 03:38:34;;;;;;;12.55;2.38;;;;;;;16.52;97.90;99101.16;5061713;28;20024;-55
2022/06/26 03:40:59;;;;;;;13.52;2.45;;;;;;;17.11;93.34;99106.56;5069546;28;20055;-55
2022/06/26 03:43:25;;;;;;;17.92;2.30;;;;;;;17.57;89.65;99120.38;5054312;28;20029;-55
2022/06/26 03:45:50;;;;;;;12.10;2.35;;;;;;;18.27;85.13;99122.38;5047708;28;20028;-55
2022/06/26 03:48:16;;;;;;;11.05;2.10;;;;;;;17.93;85.12;99113.66;5062944;28;20031;-55
2022/06/26 03:50:41;;;;;;;10.85;2.05;;;;;;;17.07;90.31;99121.75;5068926;28;20471;-55
2022/06/26 03:53:07;;;;;;;9.60;2.03;;;;;;;18.35;84.52;99128.22;5035325;28;20025;-55
2022/06/26 03:55:32;;;;;;;6.78;1.80;;;;;;;18.39;82.56;99130.03;5069139;28;20143;-55
2022/06/26 03:57:58;;;;;;;5.97;1.80;;;;;;;17.91;85.11;99124.00;5069895;28;20082;-55
2022/06/26 04:00:23;;;;;;;10.55;1.63;;;;;;;18.70;79.41;99119.47;5068579;28;20055;-54
2022/06/26 04:02:49;;;;;;;6.70;1.70;;;;;;;17.69;83.76;99122.63;5067174;28;20025;-56
2022/06/26 04:05:14;;;;;;;5.05;1.70;;;;;;;16.87;87.75;99111.97;5046962;28;20239;-55
2022/06/26 04:07:39;;;;;;;8.05;2.92;;;;;;;16.58;89.70;99121.69;5067475;28;20035;-55
2022/06/26 04:10:05;;;;;;;17.52;2.50;;;;;;;16.30;92.35;99123.28;5067902;28;20049;-56
2022/06/26 04:12:31;;;;;;;10.20;2.13;;;;;;;15.91;95.56;99134.09;5068110;28;20426;-54
2022/06/26 04:14:56;;;;;;;5.63;1.90;;;;;;;16.16;94.87;99141.22;5068245;28;20025;-56
2022/06/26 04:17:21;;;;;;;13.55;2.20;;;;;;;16.02;94.55;99132.91;5051416;28;20526;-55
2022/06/26 04:19:49;;;;;;;13.27;2.55;;;;;;;15.61;97.58;99135.03;5068365;28;20471;-55
2022/06/26 04:22:14;;;;;;;13.38;2.50;;;;;;;15.48;99.38;99137.25;5062005;28;20493;-54
2022/06/26 04:24:39;;;;;;;16.25;2.50;;;;;;;15.83;98.11;99134.69;5069635;28;20028;-55
2022/06/26 04:27:05;;;;;;;7.55;2.28;;;;;;;15.91;96.97;99139.50;5068918;28;20020;-55
2022/06/26 04:29:31;;;;;;;13.30;2.28;;;;;;;16.13;95.33;99152.59;5033948;28;20025;-52
2022/06/26 04:31:56;;;;;;;9.43;2.20;;;;;;;16.08;96.08;99161.56;5066968;28;20443;-55
2022/06/26 04:34:21;;;;;;;11.48;2.30;;;;;;;16.02;96.68;99159.94;5066962;28;20080;-54
2022/06/26 04:36:47;;;;;;;12.00;2.38;;;;;;;16.04;96.65;99165.91;5067486;28;20033;-55
2022/06/26 04:39:12;;;;;;;11.90;2.28;;;;;;;16.02;97.00;99168.06;5056287;28;20028;-54
2022/06/26 04:41:39;;;;;;;9.15;2.22;;;;;;;15.91;97.25;99159.22;5068336;28;20083;-54
2022/06/26 04:44:06;;;;;;;10.98;2.50;;;;;;;16.27;95.66;99150.06;5061491;28;20402;-54
2022/06/26 04:46:32;;;;;;;20.67;2.15;;;;;;;16.25;94.59;99139.53;5066773;28;20119;-54
2022/06/26 04:48:57;;;;;;;6.53;3.55;;;;;;;16.51;93.22;99134.72;5065759;28;20107;-55
2022/06/26 04:51:23;;;;;;;7.93;2.20;;;;;;;16.72;92.02;99148.06;5067382;28;20469;-55
2022/06/26 04:53:48;;;;;;;6.25;2.25;;;;;;;16.63;91.99;99144.38;5063660;28;20262;-55
2022/06/26 04:56:14;;;;;;;5.50;2.10;;;;;;;16.72;92.30;99148.06;5061690;28;20021;-55
2022/06/26 04:58:39;;;;;;;8.60;1.98;;;;;;;16.80;92.17;99140.19;5065587;28;20032;-55
2022/06/26 05:01:05;;;;;;;8.30;1.95;;;;;;;17.70;86.54;99145.94;5067857;28;20036;-56
2022/06/26 05:03:31;;;;;;;7.88;1.98;;;;;;;18.49;81.98;99148.06;5066500;28;20021;-55
2022/06/26 05:05:56;;;;;;;7.85;1.90;;;;;;;20.03;75.76;99144.00;5066910;28;20471;-55
2022/06/26 05:08:22;;;;;;;6.85;1.90;;;;;;;21.50;69.15;99151.47;5062115;28;20060;-55
2022/06/26 05:10:47;;;;;;;7.50;1.65;;;;;;;21.54;69.63;99146.19;5049914;28;20051;-55
2022/06/26 05:13:12;;;;;;;7.13;1.95;;;;;;;19.70;75.90;99148.84;5067539;28;20052;-55
2022/06/26 05:15:38;;;;;;;9.43;1.70;;;;;;;18.52;81.32;99145.56;5037684;28;20027;-55
2022/06/26 05:18:03;;;;;;;7.60;1.67;;;;;;;18.09;84.35;99156.53;5036801;28;20028;-55
2022/06/26 05:20:29;;;;;;;7.13;1.95;;;;;;;17.89;84.17;99168.47;5067714;28;20062;-56
2022/06/26 05:22:54;;;;;;;9.50;2.25;;;;;;;17.43;86.73;99165.50;5067928;28;20391;-55
2022/06/26 05:25:20;;;;;;;11.27;2.17;;;;;;;17.45;87.82;99174.97;5066629;28;20021;-56
2022/06/26 05:27:45;;;;;;;14.43;3.50;;;;;;;17.44;87.80;99170.63;5067095;28;20044;-55
2022/06/26 05:30:11;;;;;;;5.68;1.83;;;;;;;17.30;87.59;99169.72;5067004;28;20035;-55
2022/06/26 05:32:36;;;;;;;5.68;1.80;;;;;;;17.33;87.75;99176.47;5048585;28;20029;-56
2022/06/26 05:35:02;;;;;;;3.60;1.88;;;;;;;17.85;86.71;99181.00;5067222;28;20035;-55
2022/06/26 05:37:27;;;;;;;5.65;1.80;;;;;;;17.61;87.52;99196.47;5068129;28;20429;-55
2022/06/26 05:39:53;;;;;;;7.38;1.95;;;;;;;17.61;87.06;99196.47;5067753;28;20028;-54
2022/06/26 05:42:18;;;;;;;7.80;1.80;;;;;;;17.56;88.11;99189.19;5066713;28;20467;-54
2022/06/26 05:44:43;;;;;;;8.30;2.15;;;;;;;17.82;87.00;99187.03;5067515;28;20399;-55
2022/06/26 05:47:09;;;;;;;9.10;1.98;;;;;;;22.02;70.02;99186.22;5064924;28;20114;-56
2022/06/26 05:49:34;;;;;;;12.32;1.92;;;;;;;23.19;65.06;99186.31;5066729;28;20033;-55
2022/06/26 05:52:02;;;;;;;7.60;1.52;;;;;;;23.54;62.34;99186.16;5066988;28;20036;-55
2022/06/26 05:54:27;;;;;;;5.53;1.85;;;;;;;22.92;65.46;99204.69;5068445;28;20028;-55
2022/06/26 05:56:53;;;;;;;7.00;1.73;;;;;;;20.38;72.23;99209.59;5066672;28;20025;-56
2022/06/26 05:59:18;;;;;;;5.57;1.70;;;;;;;20.25;73.88;99218.63;5065859;28;20025;-56
2022/06/26 06:01:44;;;;;;;6.47;1.52;;;;;;;20.84;71.71;99224.88;5065364;28;20040;-56
2022/06/26 06:04:09;;;;;;;10.57;1.80;;;;;;;19.92;76.03;99235.13;5035805;28;20381;-56
2022/06/26 06:06:35;;;;;;;10.75;2.10;;;;;;;21.69;70.39;99246.66;5064764;28;20533;-56
2022/06/26 06:09:00;;;;;;;14.63;2.15;;;;;;;24.81;60.54;99248.13;5067330;28;20025;-54
2022/06/26 06:11:26;;;;;;;8.60;1.95;;;;;;;22.58;63.97;99247.31;5065451;28;20048;-54
2022/06/26 06:13:51;;;;;;;8.27;1.70;;;;;;;20.15;74.44;99255.03;5066827;28;20044;-56
2022/06/26 06:16:17;;;;;;;8.48;1.88;;;;;;;19.69;77.93;99257.88;5057110;28;20044;-55
2022/06/26 06:18:43;;;;;;;4.43;1.48;;;;;;;19.52;77.89;99247.56;5069729;28;20494;-55
2022/06/26 06:21:08;;;;;;;9.80;1.88;;;;;;;19.90;77.21;99253.66;5070105;28;20036;-53
2022/06/26 06:23:33;;;;;;;8.80;2.88;;;;;;;19.13;79.35;99263.22;5071760;28;20033;-54
2022/06/26 06:25:59;;;;;;;8.00;2.40;;;;;;;18.97;80.93;99270.03;5070568;28;20027;-55
2022/06/26 06:28:24;;;;;;;4.75;1.80;;;;;;;18.24;83.82;99264.00;5070805;28;20024;-56
2022/06/26 06:30:50;;;;;;;2.65;1.65;;;;;;;18.15;85.18;99270.38;5071370;28;20032;-55
2022/06/26 06:33:15;;;;;;;9.35;2.05;;;;;;;17.75;87.35;99273.28;5070207;28;20028;-54
2022/06/26 06:35:42;;;;;;;6.80;1.92;;;;;;;17.93;85.72;99273.63;5071143;28;20028;-53
2022/06/26 06:38:08;;;;;;;6.38;2.10;;;;;;;17.50;88.39;99284.38;5070301;28;20448;-55
2022/06/26 06:40:33;;;;;;;5.07;1.80;;;;;;;17.82;88.77;99291.91;5071240;28;20474;-55
2022/06/26 06:42:59;;;;;;;3.90;2.00;;;;;;;18.26;86.75;99288.13;5071101;28;20029;-54
2022/06/26 06:45:24;;;;;;;11.35;2.20;;;;;;;17.63;89.35;99291.84;5070563;28;20037;-56
2022/06/26 06:47:50;;;;;;;6.65;1.95;;;;;;;18.03;88.56;99289.78;5069577;28;20028;-56
2022/06/26 06:50:15;;;;;;;6.40;2.10;;;;;;;17.92;89.17;99288.28;5070839;28;20032;-56
2022/06/26 06:52:41;;;;;;;9.82;2.15;;;;;;;18.20;87.42;99300.97;5069522;28;20058;-54
2022/06/26 06:55:07;;;;;;;4.38;2.08;;;;;;;17.96;89.60;99282.00;5070437;28;20082;-54
2022/06/26 06:57:32;;;;;;;5.88;2.30;;;;;;;18.27;87.11;99287.84;5069848;28;20372;-56
2022/06/26 06:59:58;;;;;;;6.45;2.10;;;;;;;18.66;85.80;99291.38;5070672;28;20074;-54
2022/06/26 07:02:23;;;;;;;4.78;2.20;;;;;;;18.24;88.47;99279.47;5069245;28;20017;-54
2022/06/26 07:04:49;;;;;;;4.18;2.10;;;;;;;18.26;87.00;99274.56;5051014;28;20047;-54
2022/06/26 07:07:14;;;;;;;4.90;2.10;;;;;;;17.87;88.72;99270.16;5065611;28;20047;-56
2022/06/26 07:09:40;;;;;;;3.30;2.00;;;;;;;18.86;85.37;99276.72;5070064;28;20127;-55
2022/06/26 07:12:05;;;;;;;3.88;2.03;;;;;;;18.30;86.66;99281.84;5069371;28;20044;-55
2022/06/26 07:14:31;;;;;;;10.52;2.80;;;;;;;18.62;87.04;99280.31;5070422;28;20028;-54
2022/06/26 07:16:56;;;;;;;7.00;2.00;;;;;;;18.80;85.00;99280.63;5070966;28;20379;-55
2022/06/26 07:19:22;;;;;;;2.83;2.08;;;;;;;19.13;83.69;99292.28;5068579;28;20761;-55
2022/06/26 07:21:47;;;;;;;3.45;2.20;;;;;;;18.91;84.43;99295.63;5068532;28;20458;-55
2022/06/26 07:24:13;;;;;;;3.72;1.88;;;;;;;18.38;85.56;99306.69;5067477;28;20033;-54
2022/06/26 07:26:38;;;;;;;2.90;2.00;;;;;;;18.60;84.64;99303.41;5068149;28;20086;-54
2022/06/26 07:29:04;;;;;;;3.30;1.90;;;;;;;19.29;81.00;99306.41;5065943;28;20024;-55
2022/06/26 07:31:30;;;;;;;3.97;1.95;;;;;;;18.67;83.80;99315.53;5066735;28;20081;-52
2022/06/26 07:34:15;;;;;;;6.45;1.95;;;;;;;18.44;84.84;99316.38;5068079;28;20455;-54
2022/06/26 07:36:41;;;;;;;3.92;1.92;;;;;;;18.59;84.06;99308.00;5067127;28;20050;-55
2022/06/26 07:39:07;;;;;;;6.03;2.05;;;;;;;18.84;83.11;99312.28;5051128;28;20035;-54
2022/06/26 07:41:33;;;;;;;4.15;1.90;;;;;;;18.74;84.02;99312.41;5067371;28;20028;-55
2022/06/26 07:43:58;;;;;;;4.85;1.95;;;;;;;18.70;83.50;99309.50;5069478;28;20032;-54
2022/06/26 07:46:24;;;;;;;5.38;1.95;;;;;;;19.54;81.22;99311.38;5064444;28;20136;-53
2022/06/26 07:48:49;;;;;;;2.95;1.70;;;;;;;19.01;81.38;99309.03;5068989;28;20067;-53
2022/06/26 07:51:15;;;;;;;4.38;1.80;;;;;;;19.38;80.74;99301.91;5070374;28;20035;-53
2022/06/26 07:53:40;;;;;;;3.85;2.00;;;;;;;19.68;78.85;99299.78;5069649;28;20063;-54
2022/06/26 07:56:05;;;;;;;3.08;2.10;;;;;;;20.41;78.20;99292.56;5069945;28;20082;-54
2022/06/26 07:58:31;;;;;;;2.75;1.83;;;;;;;20.73;74.42;99293.53;5068187;28;20085;-53
2022/06/26 08:00:56;;;;;;;3.22;1.70;;;;;;;21.81;70.79;99281.50;5046631;28;20487;-54
2022/06/26 08:03:22;;;;;;;4.35;1.83;;;;;;;22.38;68.03;99292.44;5068291;28;20064;-54
2022/06/26 08:05:47;;;;;;;3.72;1.80;;;;;;;22.32;68.55;99301.13;5063452;28;20021;-54
2022/06/26 08:08:13;;;;;;;2.40;1.63;;;;;;;21.60;71.36;99302.28;5052017;28;20078;-54
2022/06/26 08:10:38;;;;;;;3.58;1.50;;;;;;;21.72;70.38;99307.97;5047617;28;20132;-54
2022/06/26 08:13:04;;;;;;;5.13;1.70;;;;;;;21.74;69.19;99312.00;5067282;28;20028;-55
2022/06/26 08:15:29;;;;;;;3.00;1.67;;;;;;;21.12;71.17;99303.75;5069637;28;20031;-55
2022/06/26 08:17:55;;;;;;;3.95;1.88;;;;;;;21.59;70.23;99312.41;5068303;28;20108;-54
2022/06/26 08:20:20;;;;;;;2.35;1.65;;;;;;;22.29;66.72;99305.28;5069119;28;20035;-55
2022/06/26 08:22:46;;;;;;;3.70;1.63;;;;;;;23.20;65.53;99308.22;5070440;28;20419;-54
2022/06/26 08:25:11;;;;;;;2.15;1.52;;;;;;;23.72;60.17;99307.25;5068584;28;20052;-55
2022/06/26 08:27:40;;;;;;;6.28;1.80;;;;;;;22.35;66.18;99305.94;5068516;28;20126;-55
2022/06/26 08:30:06;;;;;;;4.40;1.50;;;;;;;23.71;61.58;99300.16;5067349;28;20120;-55
2022/06/26 08:32:31;;;;;;;2.75;1.60;;;;;;;24.55;57.64;99306.69;5062891;28;20167;-54
2022/06/26 08:34:57;;;;;;;2.08;1.60;;;;;;;24.87;57.92;99296.13;5059074;28;20024;-55
2022/06/26 08:37:22;;;;;;;4.43;1.58;;;;;;;24.76;57.85;99298.44;5064942;28;20012;-54
2022/06/26 08:39:48;;;;;;;2.50;1.38;;;;;;;25.99;54.07;99302.34;5064325;28;20036;-55
2022/06/26 08:42:13;;;;;;;2.42;1.50;;;;;;;27.95;49.52;99305.50;5067236;28;20042;-55
2022/06/26 08:44:42;;;;;;;4.65;1.50;;;;;;;29.22;46.21;99313.41;5068525;28;20032;-56
2022/06/26 08:47:08;;;;;;;1.90;1.30;;;;;;;27.72;48.38;99322.63;5063088;28;20030;-54
2022/06/26 08:49:34;;;;;;;3.70;1.60;;;;;;;25.38;55.37;99330.47;5044592;28;20054;-55
2022/06/26 08:51:59;;;;;;;2.72;1.70;;;;;;;24.59;55.71;99339.69;5046407;28;20059;-55
2022/06/26 08:54:25;;;;;;;4.32;1.60;;;;;;;25.81;51.99;99331.16;5048695;28;20067;-56
2022/06/26 08:56:50;;;;;;;2.60;1.70;;;;;;;28.36;47.17;99344.66;5040249;28;20059;-56
2022/06/26 08:59:17;;;;;;;3.53;1.58;;;;;;;27.80;48.29;99333.81;5060218;28;20028;-55
2022/06/26 09:01:52;;;;;;;3.10;1.55;;;;;;;28.18;46.67;99342.28;5140805;27;20135;-55
2022/06/26 09:04:18;;;;;;;6.20;1.75;;;;;;;26.41;52.96;99346.03;5114478;27;20123;-54
2022/06/26 09:06:44;;;;;;;2.38;1.50;;;;;;;25.91;54.09;99338.16;5119299;27;20035;-54
2022/06/26 09:09:25;;;;;;;2.83;1.27;;;;;;;25.77;53.55;99342.00;5083552;28;20032;-54
2022/06/26 09:11:55;;;;;;;4.03;1.60;;;;;;;25.98;52.77;99332.88;5091780;27;20031;-55
2022/06/26 09:14:21;;;;;;;4.50;1.55;;;;;;;25.63;54.72;99338.75;5099816;27;20484;-55
2022/06/26 09:16:47;;;;;;;3.25;1.52;;;;;;;27.54;46.94;99335.16;5101161;28;20575;-54
2022/06/26 09:19:20;;;;;;;3.10;1.40;;;;;;;28.33;46.14;99337.91;5120111;27;20024;-54
2022/06/26 09:21:46;;;;;;;2.13;1.42;;;;;;;28.73;44.51;99339.59;5118233;27;20031;-54
2022/06/26 09:24:13;;;;;;;2.50;1.33;;;;;;;27.00;47.46;99332.84;5116863;27;20487;-55
2022/06/26 09:26:39;;;;;;;3.22;1.40;;;;;;;27.40;46.35;99335.56;5122688;27;20032;-54
2022/06/26 09:29:23;;;;;;;4.10;1.55;;;;;;;26.30;49.42;99339.41;5101965;27;20058;-55
2022/06/26 09:31:48;;;;;;;2.28;1.50;;;;;;;25.99;50.82;99329.03;5099681;28;20024;-55
2022/06/26 09:34:23;;;;;;;1.95;1.55;;;;;;;25.59;50.98;99338.66;5099610;27;20020;-55
2022/06/26 09:36:59;;;;;;;6.15;1.65;;;;;;;26.42;52.48;99339.41;5117463;27;20027;-55
2022/06/26 09:39:27;;;;;;;2.78;1.50;;;;;;;29.31;44.59;99341.56;5115133;27;20028;-54
2022/06/26 09:41:53;;;;;;;2.13;1.50;;;;;;;29.07;45.06;99342.66;5116313;27;20030;-55
2022/06/26 09:44:19;;;;;;;3.10;1.50;;;;;;;30.64;41.43;99333.50;5097449;28;20023;-55
2022/06/26 09:46:44;;;;;;;3.65;1.50;;;;;;;28.54;44.31;99343.13;5118512;27;20043;-55
2022/06/26 09:49:10;;;;;;;3.45;1.40;;;;;;;24.73;52.94;99335.53;5118180;27;20418;-54
2022/06/26 09:51:35;;;;;;;3.28;1.50;;;;;;;25.85;50.37;99332.09;5101353;28;20020;-54
2022/06/26 09:54:01;;;;;;;1.73;1.40;;;;;;;23.57;52.13;99333.22;5088280;27;20152;-54
2022/06/26 09:56:27;;;;;;;5.97;1.52;;;;;;;23.57;55.13;99338.69;5071604;28;20020;-53
2022/06/26 09:58:54;;;;;;;2.83;1.70;;;;;;;24.96;53.28;99343.44;5118651;27;20036;-55
2022/06/26 10:06:47;;;;;;;1.60;1.48;;;;;;;24.27;52.43;99340.03;5097704;28;20085;-54
2022/06/26 10:09:13;;;;;;;2.35;1.50;;;;;;;24.42;53.22;99346.06;5079715;28;20031;-53
2022/06/26 10:11:44;;;;;;;3.00;1.50;;;;;;;24.54;53.71;99340.72;5109239;27;20105;-54
2022/06/26 10:14:21;;;;;;;6.13;1.58;;;;;;;24.83;53.88;99344.50;5106754;27;20102;-53
2022/06/26 10:17:06;;;;;;;3.53;1.60;;;;;;;25.07;52.41;99349.31;5083067;28;20161;-54
2022/06/26 10:19:40;;;;;;;1.90;1.33;;;;;;;25.18;52.92;99340.34;5084641;28;20128;-54
2022/06/26 10:22:05;;;;;;;2.75;1.42;;;;;;;25.23;52.72;99347.56;5105489;27;20038;-54
2022/06/26 10:24:32;;;;;;;2.42;1.50;;;;;;;25.11;51.65;99353.81;5068502;28;20032;-53
2022/06/26 10:26:59;;;;;;;3.22;1.60;;;;;;;24.99;52.81;99356.47;5097338;27;20032;-55
2022/06/26 10:29:34;;;;;;;2.40;1.60;;;;;;;24.89;53.81;99345.94;5103121;27;20020;-56
2022/06/26 10:32:00;;;;;;;3.28;1.65;;;;;;;25.16;52.77;99353.63;5100339;27;20386;-55
2022/06/26 10:34:25;;;;;;;4.78;1.70;;;;;;;24.30;53.16;99344.84;5099472;27;20021;-55
2022/06/26 10:36:58;;;;;;;3.85;1.60;;;;;;;24.40;52.81;99342.84;5102965;28;20142;-55
2022/06/26 10:39:24;;;;;;;2.90;1.70;;;;;;;25.08;52.79;99348.97;5088655;28;20369;-54
2022/06/26 10:44:45;;;;;;;1.60;1.40;;;;;;;24.49;52.90;99360.09;5085140;28;20051;-55
2022/06/26 10:47:16;;;;;;;2.95;1.60;;;;;;;24.92;54.35;99358.97;5073226;28;20103;-54
2022/06/26 10:49:51;;;;;;;4.75;2.00;;;;;;;24.30;56.22;99361.25;5105657;27;20024;-55
2022/06/26 10:52:27;;;;;;;2.42;1.60;;;;;;;23.85;57.87;99361.78;5104324;28;20056;-55
2022/06/26 10:54:53;;;;;;;2.40;1.55;;;;;;;24.19;57.47;99367.44;5081640;28;20115;-54
2022/06/26 10:57:18;;;;;;;4.40;1.80;;;;;;;23.88;58.13;99360.34;5085535;27;20062;-55
2022/06/26 10:59:44;;;;;;;3.15;1.70;;;;;;;23.56;59.36;99367.16;5063280;27;20039;-55
2022/06/26 11:02:10;;;;;;;2.97;2.03;;;;;;;23.57;59.18;99368.78;5103315;27;20415;-55
2022/06/26 11:04:54;;;;;;;4.38;1.92;;;;;;;23.58;59.07;99370.38;5100641;27;20416;-56
2022/06/26 11:07:19;;;;;;;3.13;2.08;;;;;;;23.87;58.72;99365.00;5105538;27;20495;-55
2022/06/26 11:09:44;;;;;;;5.85;1.90;;;;;;;23.29;60.87;99373.78;5086781;28;20028;-55
2022/06/26 11:12:10;;;;;;;4.80;2.10;;;;;;;22.75;62.39;99358.50;5102231;28;20449;-55
2022/06/26 11:14:35;;;;;;;3.10;1.95;;;;;;;23.48;59.51;99369.59;5083971;27;20031;-55
2022/06/26 11:17:01;;;;;;;4.30;2.15;;;;;;;23.16;60.77;99370.13;5104114;27;20023;-55
2022/06/26 11:19:28;;;;;;;3.15;2.10;;;;;;;23.72;59.49;99368.25;5100776;27;20035;-55
2022/06/26 11:22:10;;;;;;;2.75;1.90;;;;;;;23.67;60.23;99365.69;5106948;27;20039;-55
2022/06/26 11:24:36;;;;;;;5.55;2.08;;;;;;;22.68;61.76;99368.31;5097284;28;20023;-54
2022/06/26 11:27:01;;;;;;;3.47;1.80;;;;;;;22.29;64.22;99372.72;5101910;28;20069;-55
2022/06/26 11:29:27;;;;;;;5.07;2.00;;;;;;;22.45;62.69;99381.28;5104415;27;20028;-55
2022/06/26 11:31:52;;;;;;;3.30;1.90;;;;;;;22.74;62.08;99381.50;5086322;28;20032;-54
2022/06/26 11:34:18;;;;;;;3.80;2.03;;;;;;;23.27;60.90;99368.66;5104441;27;20024;-54
2022/06/26 11:36:54;;;;;;;6.68;2.22;;;;;;;22.77;62.11;99371.88;5102685;28;20474;-56
2022/06/26 11:39:20;;;;;;;3.45;2.03;;;;;;;21.91;63.92;99378.63;5102321;27;20462;-56
2022/06/26 11:41:48;;;;;;;6.47;2.20;;;;;;;21.53;64.71;99376.34;5093290;28;20085;-56
2022/06/26 11:44:14;;;;;;;3.03;2.30;;;;;;;21.64;64.80;99369.53;5115948;27;20023;-54